sensor_id;sensor_type;location;lat;lon;timestamp;pressure;altitude;pressure_sealevel;temperature;humidity
6464;BME280;3265;42.694;23.282;2023-04-30T00:01:31;94329.50;;;11.26;94.44
6464;BME280;3265;42.694;23.282;2023-04-30T00:04:00;94337.75;;;11.23;93.96
6464;BME280;3265;42.694;23.282;2023-04-30T00:06:26;94339.91;;;11.15;94.32
6464;BME280;3265;42.694;23.282;2023-04-30T00:08:53;94335.28;;;11.17;94.65
6464;BME280;3265;42.694;23.282;2023-04-30T00:11:20;94336.09;;;11.06;95.47
6464;BME280;3265;42.694;23.282;2023-04-30T00:13:48;94333.03;;;11.09;95.61
6464;BME280;3265;42.694;23.282;2023-04-30T00:16:15;94334.28;;;11.06;95.69
6464;BME280;3265;42.694;23.282;2023-04-30T00:18:42;94327.06;;;10.97;95.56
6464;BME280;3265;42.694;23.282;2023-04-30T00:21:10;94330.81;;;10.89;96.18
6464;BME280;3265;42.694;23.282;2023-04-30T00:23:37;94330.44;;;10.86;96.02
6464;BME280;3265;42.694;23.282;2023-04-30T00:26:04;94329.66;;;10.85;96.02
6464;BME280;3265;42.694;23.282;2023-04-30T00:28:31;94327.66;;;10.87;96.65
6464;BME280;3265;42.694;23.282;2023-04-30T00:30:58;94324.25;;;10.75;97.19
6464;BME280;3265;42.694;23.282;2023-04-30T00:33:25;94334.31;;;10.60;97.55
6464;BME280;3265;42.694;23.282;2023-04-30T00:35:51;94331.34;;;10.56;97.79
6464;BME280;3265;42.694;23.282;2023-04-30T00:38:19;94327.09;;;10.50;98.10
6464;BME280;3265;42.694;23.282;2023-04-30T00:40:46;94337.25;;;10.52;98.55
6464;BME280;3265;42.694;23.282;2023-04-30T00:43:13;94326.75;;;10.47;98.55
6464;BME280;3265;42.694;23.282;2023-04-30T00:45:40;94339.94;;;10.57;98.65
6464;BME280;3265;42.694;23.282;2023-04-30T00:48:07;94326.63;;;10.53;98.08
6464;BME280;3265;42.694;23.282;2023-04-30T00:50:34;94319.75;;;10.47;98.57
6464;BME280;3265;42.694;23.282;2023-04-30T00:53:01;94325.94;;;10.46;97.93
6464;BME280;3265;42.694;23.282;2023-04-30T00:55:30;94327.75;;;10.46;97.71
6464;BME280;3265;42.694;23.282;2023-04-30T00:57:58;94317.00;;;10.42;97.33
6464;BME280;3265;42.694;23.282;2023-04-30T01:00:26;94325.84;;;10.41;97.49
6464;BME280;3265;42.694;23.282;2023-04-30T01:02:54;94326.72;;;10.35;98.05
6464;BME280;3265;42.694;23.282;2023-04-30T01:05:21;94317.69;;;10.38;98.09
6464;BME280;3265;42.694;23.282;2023-04-30T01:07:48;94320.75;;;10.35;97.99
6464;BME280;3265;42.694;23.282;2023-04-30T01:10:16;94319.03;;;10.29;98.28
6464;BME280;3265;42.694;23.282;2023-04-30T01:12:49;94317.88;;;10.24;97.83
6464;BME280;3265;42.694;23.282;2023-04-30T01:15:25;94314.97;;;10.21;98.58
6464;BME280;3265;42.694;23.282;2023-04-30T01:17:55;94322.06;;;10.14;99.03
6464;BME280;3265;42.694;23.282;2023-04-30T01:20:27;94324.50;;;10.09;98.97
6464;BME280;3265;42.694;23.282;2023-04-30T01:22:58;94324.03;;;10.00;100.00
6464;BME280;3265;42.694;23.282;2023-04-30T01:25:59;94323.16;;;10.06;99.15
6464;BME280;3265;42.694;23.282;2023-04-30T01:28:35;94319.97;;;10.04;99.28
6464;BME280;3265;42.694;23.282;2023-04-30T01:31:01;94317.25;;;9.99;100.00
6464;BME280;3265;42.694;23.282;2023-04-30T01:33:28;94321.31;;;9.95;100.00
6464;BME280;3265;42.694;23.282;2023-04-30T01:36:12;94318.56;;;9.90;100.00
6464;BME280;3265;42.694;23.282;2023-04-30T01:38:56;94323.78;;;9.90;100.00
6464;BME280;3265;42.694;23.282;2023-04-30T01:41:32;94324.22;;;9.87;100.00
6464;BME280;3265;42.694;23.282;2023-04-30T01:44:11;94314.41;;;9.89;99.99
6464;BME280;3265;42.694;23.282;2023-04-30T01:46:48;94324.53;;;9.79;100.00
6464;BME280;3265;42.694;23.282;2023-04-30T01:49:21;94304.31;;;9.69;100.00
6464;BME280;3265;42.694;23.282;2023-04-30T01:51:58;94328.59;;;9.75;99.90
6464;BME280;3265;42.694;23.282;2023-04-30T01:54:31;94330.84;;;9.72;100.00
6464;BME280;3265;42.694;23.282;2023-04-30T01:57:04;94316.69;;;9.67;100.00
6464;BME280;3265;42.694;23.282;2023-04-30T01:59:35;94330.94;;;9.77;100.00
6464;BME280;3265;42.694;23.282;2023-04-30T02:02:05;94326.75;;;9.76;100.00
6464;BME280;3265;42.694;23.282;2023-04-30T02:04:32;94321.13;;;9.79;100.00
6464;BME280;3265;42.694;23.282;2023-04-30T02:06:58;94314.59;;;9.76;100.00
6464;BME280;3265;42.694;23.282;2023-04-30T02:09:26;94320.56;;;9.77;100.00
6464;BME280;3265;42.694;23.282;2023-04-30T02:11:52;94324.53;;;9.79;100.00
6464;BME280;3265;42.694;23.282;2023-04-30T02:14:19;94331.56;;;9.90;99.48
6464;BME280;3265;42.694;23.282;2023-04-30T02:16:47;94323.22;;;9.88;99.43
6464;BME280;3265;42.694;23.282;2023-04-30T02:19:17;94316.53;;;9.81;99.93
6464;BME280;3265;42.694;23.282;2023-04-30T02:21:44;94325.69;;;9.83;99.80
6464;BME280;3265;42.694;23.282;2023-04-30T02:24:11;94323.53;;;9.80;100.00
6464;BME280;3265;42.694;23.282;2023-04-30T02:26:37;94322.72;;;9.80;100.00
6464;BME280;3265;42.694;23.282;2023-04-30T02:29:04;94327.47;;;9.83;100.00
6464;BME280;3265;42.694;23.282;2023-04-30T02:31:31;94325.13;;;9.81;100.00
6464;BME280;3265;42.694;23.282;2023-04-30T02:33:59;94317.34;;;9.81;100.00
6464;BME280;3265;42.694;23.282;2023-04-30T02:36:26;94318.00;;;9.88;100.00
6464;BME280;3265;42.694;23.282;2023-04-30T02:38:53;94325.00;;;9.88;100.00
6464;BME280;3265;42.694;23.282;2023-04-30T02:41:19;94315.06;;;9.85;100.00
6464;BME280;3265;42.694;23.282;2023-04-30T02:43:46;94315.50;;;9.82;100.00
6464;BME280;3265;42.694;23.282;2023-04-30T02:46:13;94319.69;;;9.83;100.00
6464;BME280;3265;42.694;23.282;2023-04-30T02:48:40;94310.75;;;9.79;100.00
6464;BME280;3265;42.694;23.282;2023-04-30T02:51:08;94314.63;;;9.88;100.00
6464;BME280;3265;42.694;23.282;2023-04-30T02:53:35;94321.84;;;9.86;100.00
6464;BME280;3265;42.694;23.282;2023-04-30T02:56:02;94325.28;;;9.98;100.00
6464;BME280;3265;42.694;23.282;2023-04-30T02:58:29;94334.63;;;9.99;100.00
6464;BME280;3265;42.694;23.282;2023-04-30T03:00:56;94332.81;;;9.99;100.00
6464;BME280;3265;42.694;23.282;2023-04-30T03:03:22;94329.22;;;10.00;100.00
6464;BME280;3265;42.694;23.282;2023-04-30T03:05:49;94336.00;;;10.01;100.00
6464;BME280;3265;42.694;23.282;2023-04-30T03:08:17;94332.50;;;10.07;100.00
6464;BME280;3265;42.694;23.282;2023-04-30T03:10:44;94342.13;;;10.07;100.00
6464;BME280;3265;42.694;23.282;2023-04-30T03:13:11;94337.03;;;10.12;100.00
6464;BME280;3265;42.694;23.282;2023-04-30T03:15:38;94338.59;;;10.01;100.00
6464;BME280;3265;42.694;23.282;2023-04-30T03:18:04;94343.91;;;10.06;100.00
6464;BME280;3265;42.694;23.282;2023-04-30T03:20:31;94335.53;;;10.04;100.00
6464;BME280;3265;42.694;23.282;2023-04-30T03:22:58;94349.47;;;10.10;100.00
6464;BME280;3265;42.694;23.282;2023-04-30T03:25:26;94347.06;;;10.08;100.00
6464;BME280;3265;42.694;23.282;2023-04-30T03:27:53;94333.88;;;10.10;100.00
6464;BME280;3265;42.694;23.282;2023-04-30T03:30:20;94338.19;;;10.16;99.93
6464;BME280;3265;42.694;23.282;2023-04-30T03:32:46;94329.69;;;10.09;100.00
6464;BME280;3265;42.694;23.282;2023-04-30T03:35:13;94349.22;;;10.11;100.00
6464;BME280;3265;42.694;23.282;2023-04-30T03:37:40;94349.63;;;10.15;100.00
6464;BME280;3265;42.694;23.282;2023-04-30T03:40:08;94336.56;;;10.03;100.00
6464;BME280;3265;42.694;23.282;2023-04-30T03:42:36;94355.38;;;10.17;100.00
6464;BME280;3265;42.694;23.282;2023-04-30T03:45:04;94358.75;;;10.17;100.00
6464;BME280;3265;42.694;23.282;2023-04-30T03:47:31;94354.41;;;10.11;100.00
6464;BME280;3265;42.694;23.282;2023-04-30T03:49:58;94369.25;;;10.22;100.00
6464;BME280;3265;42.694;23.282;2023-04-30T03:52:25;94364.53;;;10.31;100.00
6464;BME280;3265;42.694;23.282;2023-04-30T03:54:52;94369.97;;;10.30;100.00
6464;BME280;3265;42.694;23.282;2023-04-30T03:57:19;94377.00;;;10.41;100.00
6464;BME280;3265;42.694;23.282;2023-04-30T03:59:48;94384.00;;;10.40;100.00
6464;BME280;3265;42.694;23.282;2023-04-30T04:02:15;94377.56;;;10.43;100.00
6464;BME280;3265;42.694;23.282;2023-04-30T04:04:42;94382.09;;;10.47;98.79
6464;BME280;3265;42.694;23.282;2023-04-30T04:07:09;94377.09;;;10.46;98.98
6464;BME280;3265;42.694;23.282;2023-04-30T04:09:36;94383.44;;;10.50;97.32
6464;BME280;3265;42.694;23.282;2023-04-30T04:12:03;94382.22;;;10.52;96.70
6464;BME280;3265;42.694;23.282;2023-04-30T04:14:30;94381.19;;;10.53;96.27
6464;BME280;3265;42.694;23.282;2023-04-30T04:16:59;94386.50;;;10.58;95.40
6464;BME280;3265;42.694;23.282;2023-04-30T04:19:26;94381.41;;;10.52;95.28
6464;BME280;3265;42.694;23.282;2023-04-30T04:21:53;94383.22;;;10.51;95.59
6464;BME280;3265;42.694;23.282;2023-04-30T04:24:20;94388.66;;;10.50;95.67
6464;BME280;3265;42.694;23.282;2023-04-30T04:26:46;94390.34;;;10.56;95.14
6464;BME280;3265;42.694;23.282;2023-04-30T04:29:13;94386.16;;;10.55;94.14
6464;BME280;3265;42.694;23.282;2023-04-30T04:31:41;94388.53;;;10.56;93.22
6464;BME280;3265;42.694;23.282;2023-04-30T04:34:10;94386.03;;;10.50;93.83
6464;BME280;3265;42.694;23.282;2023-04-30T04:36:36;94396.56;;;10.55;93.50
6464;BME280;3265;42.694;23.282;2023-04-30T04:39:03;94399.72;;;10.57;93.47
6464;BME280;3265;42.694;23.282;2023-04-30T04:41:31;94404.88;;;10.45;93.63
6464;BME280;3265;42.694;23.282;2023-04-30T04:43:58;94389.75;;;10.54;93.21
6464;BME280;3265;42.694;23.282;2023-04-30T04:46:26;94386.41;;;10.53;93.09
6464;BME280;3265;42.694;23.282;2023-04-30T04:48:54;94396.66;;;10.60;93.07
6464;BME280;3265;42.694;23.282;2023-04-30T04:51:22;94397.56;;;10.65;93.40
6464;BME280;3265;42.694;23.282;2023-04-30T04:53:49;94396.13;;;10.69;93.08
6464;BME280;3265;42.694;23.282;2023-04-30T04:56:16;94407.97;;;10.77;93.27
6464;BME280;3265;42.694;23.282;2023-04-30T04:58:43;94414.53;;;10.79;93.48
6464;BME280;3265;42.694;23.282;2023-04-30T05:01:10;94404.03;;;10.86;92.40
6464;BME280;3265;42.694;23.282;2023-04-30T05:03:37;94419.19;;;10.89;92.64
6464;BME280;3265;42.694;23.282;2023-04-30T05:06:05;94412.19;;;10.90;91.47
6464;BME280;3265;42.694;23.282;2023-04-30T05:08:33;94408.56;;;10.91;92.27
6464;BME280;3265;42.694;23.282;2023-04-30T05:11:00;94411.63;;;10.88;92.24
6464;BME280;3265;42.694;23.282;2023-04-30T05:13:27;94408.69;;;10.84;92.19
6464;BME280;3265;42.694;23.282;2023-04-30T05:15:54;94413.53;;;10.92;92.43
6464;BME280;3265;42.694;23.282;2023-04-30T05:18:21;94413.31;;;10.94;92.91
6464;BME280;3265;42.694;23.282;2023-04-30T05:20:48;94415.00;;;11.00;92.46
6464;BME280;3265;42.694;23.282;2023-04-30T05:23:15;94419.75;;;11.03;92.66
6464;BME280;3265;42.694;23.282;2023-04-30T05:25:43;94418.28;;;11.18;91.93
6464;BME280;3265;42.694;23.282;2023-04-30T05:28:11;94414.44;;;11.21;92.05
6464;BME280;3265;42.694;23.282;2023-04-30T05:30:38;94411.63;;;11.22;91.88
6464;BME280;3265;42.694;23.282;2023-04-30T05:33:05;94415.78;;;11.35;91.61
6464;BME280;3265;42.694;23.282;2023-04-30T05:35:31;94413.72;;;11.49;90.04
6464;BME280;3265;42.694;23.282;2023-04-30T05:38:00;94420.41;;;11.45;90.16
6464;BME280;3265;42.694;23.282;2023-04-30T05:40:27;94406.50;;;11.39;90.68
6464;BME280;3265;42.694;23.282;2023-04-30T05:42:55;94400.41;;;11.33;90.93
6464;BME280;3265;42.694;23.282;2023-04-30T05:45:22;94412.94;;;11.48;91.24
6464;BME280;3265;42.694;23.282;2023-04-30T05:47:49;94415.41;;;11.55;91.16
6464;BME280;3265;42.694;23.282;2023-04-30T05:50:16;94414.84;;;11.64;90.52
6464;BME280;3265;42.694;23.282;2023-04-30T05:52:43;94414.38;;;11.67;90.35
6464;BME280;3265;42.694;23.282;2023-04-30T05:55:10;94405.56;;;11.68;90.58
6464;BME280;3265;42.694;23.282;2023-04-30T05:57:37;94413.03;;;11.76;90.70
6464;BME280;3265;42.694;23.282;2023-04-30T06:00:07;94421.81;;;11.87;89.99
6464;BME280;3265;42.694;23.282;2023-04-30T06:02:34;94422.69;;;11.92;89.29
6464;BME280;3265;42.694;23.282;2023-04-30T06:05:05;94427.44;;;11.95;88.80
6464;BME280;3265;42.694;23.282;2023-04-30T06:07:33;94428.91;;;12.03;88.26
6464;BME280;3265;42.694;23.282;2023-04-30T06:10:00;94431.72;;;12.02;88.04
6464;BME280;3265;42.694;23.282;2023-04-30T06:12:27;94428.91;;;12.03;88.09
6464;BME280;3265;42.694;23.282;2023-04-30T06:14:54;94433.75;;;12.11;87.67
6464;BME280;3265;42.694;23.282;2023-04-30T06:17:22;94433.41;;;12.08;87.32
6464;BME280;3265;42.694;23.282;2023-04-30T06:19:49;94431.47;;;12.15;87.40
6464;BME280;3265;42.694;23.282;2023-04-30T06:22:15;94432.44;;;12.25;87.37
6464;BME280;3265;42.694;23.282;2023-04-30T06:24:42;94436.81;;;12.36;87.39
6464;BME280;3265;42.694;23.282;2023-04-30T06:27:09;94428.84;;;12.43;86.45
6464;BME280;3265;42.694;23.282;2023-04-30T06:29:36;94438.09;;;12.50;86.18
6464;BME280;3265;42.694;23.282;2023-04-30T06:32:03;94440.22;;;12.53;85.89
6464;BME280;3265;42.694;23.282;2023-04-30T06:34:33;94437.41;;;12.55;85.65
6464;BME280;3265;42.694;23.282;2023-04-30T06:37:00;94448.47;;;12.62;85.58
6464;BME280;3265;42.694;23.282;2023-04-30T06:39:27;94443.50;;;12.61;84.61
6464;BME280;3265;42.694;23.282;2023-04-30T06:41:55;94442.16;;;12.58;85.36
6464;BME280;3265;42.694;23.282;2023-04-30T06:44:21;94444.13;;;12.68;84.76
6464;BME280;3265;42.694;23.282;2023-04-30T06:46:49;94437.41;;;12.72;84.26
6464;BME280;3265;42.694;23.282;2023-04-30T06:49:15;94430.06;;;12.69;84.10
6464;BME280;3265;42.694;23.282;2023-04-30T06:51:44;94447.84;;;12.88;82.75
6464;BME280;3265;42.694;23.282;2023-04-30T06:54:10;94429.84;;;12.87;82.98
6464;BME280;3265;42.694;23.282;2023-04-30T06:56:38;94449.22;;;13.07;81.71
6464;BME280;3265;42.694;23.282;2023-04-30T06:59:05;94441.88;;;13.21;81.55
6464;BME280;3265;42.694;23.282;2023-04-30T07:01:33;94413.06;;;13.16;80.57
6464;BME280;3265;42.694;23.282;2023-04-30T07:04:00;94445.84;;;13.45;80.68
6464;BME280;3265;42.694;23.282;2023-04-30T07:06:26;94417.50;;;13.32;80.26
6464;BME280;3265;42.694;23.282;2023-04-30T07:08:55;94448.50;;;13.67;79.55
6464;BME280;3265;42.694;23.282;2023-04-30T07:11:22;94421.72;;;13.55;78.62
6464;BME280;3265;42.694;23.282;2023-04-30T07:13:49;94419.22;;;13.65;78.52
6464;BME280;3265;42.694;23.282;2023-04-30T07:16:15;94452.19;;;13.88;78.44
6464;BME280;3265;42.694;23.282;2023-04-30T07:18:42;94455.38;;;13.95;78.37
6464;BME280;3265;42.694;23.282;2023-04-30T07:21:13;94449.97;;;14.01;78.63
6464;BME280;3265;42.694;23.282;2023-04-30T07:23:40;94454.41;;;14.01;78.58
6464;BME280;3265;42.694;23.282;2023-04-30T07:26:10;94409.16;;;13.95;78.79
6464;BME280;3265;42.694;23.282;2023-04-30T07:28:36;94457.25;;;14.21;78.62
6464;BME280;3265;42.694;23.282;2023-04-30T07:31:03;94457.38;;;14.31;78.29
6464;BME280;3265;42.694;23.282;2023-04-30T07:33:30;94461.34;;;14.34;77.99
6464;BME280;3265;42.694;23.282;2023-04-30T07:35:57;94440.59;;;14.27;76.94
6464;BME280;3265;42.694;23.282;2023-04-30T07:38:24;94457.50;;;14.41;75.59
6464;BME280;3265;42.694;23.282;2023-04-30T07:40:51;94455.16;;;14.40;76.32
6464;BME280;3265;42.694;23.282;2023-04-30T07:43:19;94459.38;;;14.46;75.40
6464;BME280;3265;42.694;23.282;2023-04-30T07:45:46;94456.06;;;14.55;74.21
6464;BME280;3265;42.694;23.282;2023-04-30T07:48:14;94452.88;;;14.48;73.33
6464;BME280;3265;42.694;23.282;2023-04-30T07:50:41;94460.00;;;14.58;72.94
6464;BME280;3265;42.694;23.282;2023-04-30T07:53:08;94457.41;;;14.58;72.71
6464;BME280;3265;42.694;23.282;2023-04-30T07:55:35;94455.88;;;14.62;72.33
6464;BME280;3265;42.694;23.282;2023-04-30T07:58:02;94459.03;;;14.64;73.07
6464;BME280;3265;42.694;23.282;2023-04-30T08:00:30;94451.28;;;14.74;72.61
6464;BME280;3265;42.694;23.282;2023-04-30T08:02:57;94451.31;;;14.79;72.03
6464;BME280;3265;42.694;23.282;2023-04-30T08:05:25;94459.47;;;14.83;71.88
6464;BME280;3265;42.694;23.282;2023-04-30T08:07:52;94465.72;;;14.82;72.35
6464;BME280;3265;42.694;23.282;2023-04-30T08:10:19;94465.16;;;14.74;71.94
6464;BME280;3265;42.694;23.282;2023-04-30T08:12:45;94471.13;;;14.70;71.57
6464;BME280;3265;42.694;23.282;2023-04-30T08:15:12;94473.09;;;14.58;71.95
6464;BME280;3265;42.694;23.282;2023-04-30T08:17:41;94469.16;;;14.55;72.77
6464;BME280;3265;42.694;23.282;2023-04-30T08:20:08;94469.69;;;14.57;72.60
6464;BME280;3265;42.694;23.282;2023-04-30T08:22:35;94471.88;;;14.65;72.23
6464;BME280;3265;42.694;23.282;2023-04-30T08:25:02;94468.81;;;14.73;71.27
6464;BME280;3265;42.694;23.282;2023-04-30T08:27:29;94470.94;;;14.76;71.11
6464;BME280;3265;42.694;23.282;2023-04-30T08:29:56;94458.69;;;14.82;69.71
6464;BME280;3265;42.694;23.282;2023-04-30T08:32:23;94468.50;;;14.97;68.78
6464;BME280;3265;42.694;23.282;2023-04-30T08:34:52;94481.16;;;15.10;68.61
6464;BME280;3265;42.694;23.282;2023-04-30T08:37:19;94463.47;;;15.27;65.82
6464;BME280;3265;42.694;23.282;2023-04-30T08:39:46;94471.72;;;15.46;64.70
6464;BME280;3265;42.694;23.282;2023-04-30T08:42:13;94475.50;;;15.60;64.68
6464;BME280;3265;42.694;23.282;2023-04-30T08:44:41;94457.72;;;15.62;62.91
6464;BME280;3265;42.694;23.282;2023-04-30T08:47:10;94467.16;;;15.63;63.32
6464;BME280;3265;42.694;23.282;2023-04-30T08:49:39;94462.22;;;15.71;62.11
6464;BME280;3265;42.694;23.282;2023-04-30T08:52:07;94459.09;;;15.74;61.56
6464;BME280;3265;42.694;23.282;2023-04-30T08:54:35;94448.84;;;15.73;61.61
6464;BME280;3265;42.694;23.282;2023-04-30T08:57:02;94448.41;;;15.81;61.55
6464;BME280;3265;42.694;23.282;2023-04-30T08:59:29;94452.91;;;15.96;61.29
6464;BME280;3265;42.694;23.282;2023-04-30T09:01:56;94453.22;;;16.09;61.49
6464;BME280;3265;42.694;23.282;2023-04-30T09:04:25;94442.50;;;16.16;60.88
6464;BME280;3265;42.694;23.282;2023-04-30T09:06:52;94428.91;;;16.24;60.35
6464;BME280;3265;42.694;23.282;2023-04-30T09:09:27;94434.19;;;16.39;59.17
6464;BME280;3265;42.694;23.282;2023-04-30T09:12:10;94426.84;;;16.51;58.91
6464;BME280;3265;42.694;23.282;2023-04-30T09:14:38;94435.03;;;16.60;58.12
6464;BME280;3265;42.694;23.282;2023-04-30T09:17:06;94430.84;;;16.64;57.53
6464;BME280;3265;42.694;23.282;2023-04-30T09:19:33;94429.00;;;16.69;57.22
6464;BME280;3265;42.694;23.282;2023-04-30T09:22:18;94422.44;;;16.77;56.67
6464;BME280;3265;42.694;23.282;2023-04-30T09:24:47;94421.16;;;16.89;57.22
6464;BME280;3265;42.694;23.282;2023-04-30T09:27:16;94410.41;;;17.11;55.58
6464;BME280;3265;42.694;23.282;2023-04-30T09:29:43;94415.84;;;17.35;55.17
6464;BME280;3265;42.694;23.282;2023-04-30T09:32:10;94408.47;;;17.52;55.66
6464;BME280;3265;42.694;23.282;2023-04-30T09:34:37;94407.41;;;17.73;54.12
6464;BME280;3265;42.694;23.282;2023-04-30T09:37:12;94408.38;;;17.97;52.99
6464;BME280;3265;42.694;23.282;2023-04-30T09:39:52;94390.28;;;17.86;52.63
6464;BME280;3265;42.694;23.282;2023-04-30T09:42:19;94411.00;;;17.97;52.21
6464;BME280;3265;42.694;23.282;2023-04-30T09:44:47;94407.84;;;18.00;51.99
6464;BME280;3265;42.694;23.282;2023-04-30T09:47:15;94406.75;;;18.06;53.16
6464;BME280;3265;42.694;23.282;2023-04-30T09:49:46;94404.78;;;18.27;51.98
6464;BME280;3265;42.694;23.282;2023-04-30T09:52:16;94407.53;;;18.61;50.51
6464;BME280;3265;42.694;23.282;2023-04-30T09:54:44;94403.13;;;18.85;49.67
6464;BME280;3265;42.694;23.282;2023-04-30T09:57:14;94405.16;;;18.93;48.70
6464;BME280;3265;42.694;23.282;2023-04-30T09:59:43;94400.75;;;18.89;49.15
6464;BME280;3265;42.694;23.282;2023-04-30T10:02:12;94391.03;;;18.84;49.67
6464;BME280;3265;42.694;23.282;2023-04-30T10:04:41;94391.75;;;18.95;50.21
6464;BME280;3265;42.694;23.282;2023-04-30T10:07:11;94385.88;;;19.03;50.06
6464;BME280;3265;42.694;23.282;2023-04-30T10:09:43;94388.88;;;18.91;49.02
6464;BME280;3265;42.694;23.282;2023-04-30T10:12:19;94395.53;;;18.84;49.11
6464;BME280;3265;42.694;23.282;2023-04-30T10:14:51;94404.56;;;18.67;48.84
6464;BME280;3265;42.694;23.282;2023-04-30T10:17:22;94402.53;;;18.59;49.37
6464;BME280;3265;42.694;23.282;2023-04-30T10:19:51;94399.69;;;18.51;50.07
6464;BME280;3265;42.694;23.282;2023-04-30T10:22:24;94424.50;;;18.35;51.50
6464;BME280;3265;42.694;23.282;2023-04-30T10:24:52;94433.91;;;17.92;57.43
6464;BME280;3265;42.694;23.282;2023-04-30T10:27:21;94446.84;;;17.48;62.14
6464;BME280;3265;42.694;23.282;2023-04-30T10:29:49;94439.53;;;17.05;66.20
6464;BME280;3265;42.694;23.282;2023-04-30T10:32:16;94445.03;;;16.83;67.05
6464;BME280;3265;42.694;23.282;2023-04-30T10:34:49;94435.78;;;16.50;71.42
6464;BME280;3265;42.694;23.282;2023-04-30T10:37:30;94438.16;;;16.57;73.77
6464;BME280;3265;42.694;23.282;2023-04-30T10:39:58;94434.78;;;16.56;75.43
6464;BME280;3265;42.694;23.282;2023-04-30T10:42:27;94421.94;;;16.65;72.95
6464;BME280;3265;42.694;23.282;2023-04-30T10:44:54;94418.53;;;16.99;72.02
6464;BME280;3265;42.694;23.282;2023-04-30T10:47:27;94419.28;;;17.35;69.72
6464;BME280;3265;42.694;23.282;2023-04-30T10:50:01;94413.72;;;17.67;67.94
6464;BME280;3265;42.694;23.282;2023-04-30T10:52:28;94402.66;;;17.80;68.67
6464;BME280;3265;42.694;23.282;2023-04-30T10:54:55;94410.38;;;18.21;70.17
6464;BME280;3265;42.694;23.282;2023-04-30T10:57:23;94410.22;;;18.51;64.19
6464;BME280;3265;42.694;23.282;2023-04-30T11:00:17;94399.84;;;18.69;62.68
6464;BME280;3265;42.694;23.282;2023-04-30T11:02:45;94410.97;;;18.95;56.93
6464;BME280;3265;42.694;23.282;2023-04-30T11:05:13;94407.16;;;19.40;52.90
6464;BME280;3265;42.694;23.282;2023-04-30T11:07:49;94412.94;;;19.71;50.03
6464;BME280;3265;42.694;23.282;2023-04-30T11:10:20;94407.69;;;20.13;50.53
6464;BME280;3265;42.694;23.282;2023-04-30T11:12:47;94405.38;;;20.49;50.21
6464;BME280;3265;42.694;23.282;2023-04-30T11:15:19;94397.91;;;20.56;47.29
6464;BME280;3265;42.694;23.282;2023-04-30T11:17:47;94413.31;;;20.30;48.32
6464;BME280;3265;42.694;23.282;2023-04-30T11:20:20;94412.81;;;20.05;48.21
6464;BME280;3265;42.694;23.282;2023-04-30T11:22:47;94406.19;;;19.83;49.72
6464;BME280;3265;42.694;23.282;2023-04-30T11:25:20;94405.91;;;19.61;48.27
6464;BME280;3265;42.694;23.282;2023-04-30T11:27:48;94403.59;;;19.55;47.72
6464;BME280;3265;42.694;23.282;2023-04-30T11:30:17;94401.69;;;19.32;48.78
6464;BME280;3265;42.694;23.282;2023-04-30T11:32:46;94402.47;;;19.32;49.25
6464;BME280;3265;42.694;23.282;2023-04-30T11:35:16;94401.81;;;19.50;49.71
6464;BME280;3265;42.694;23.282;2023-04-30T11:37:44;94385.59;;;19.62;50.09
6464;BME280;3265;42.694;23.282;2023-04-30T11:40:12;94390.44;;;19.78;48.24
6464;BME280;3265;42.694;23.282;2023-04-30T11:42:41;94392.50;;;20.05;48.15
6464;BME280;3265;42.694;23.282;2023-04-30T11:45:09;94397.69;;;20.53;49.96
6464;BME280;3265;42.694;23.282;2023-04-30T11:47:42;94401.00;;;20.95;50.79
6464;BME280;3265;42.694;23.282;2023-04-30T11:50:11;94403.13;;;21.44;51.92
6464;BME280;3265;42.694;23.282;2023-04-30T11:52:38;94394.56;;;21.93;49.73
6464;BME280;3265;42.694;23.282;2023-04-30T11:55:07;94392.47;;;22.31;47.88
6464;BME280;3265;42.694;23.282;2023-04-30T11:57:41;94398.69;;;22.63;48.60
6464;BME280;3265;42.694;23.282;2023-04-30T12:00:13;94393.19;;;22.95;47.83
6464;BME280;3265;42.694;23.282;2023-04-30T12:02:43;94389.94;;;22.76;47.34
6464;BME280;3265;42.694;23.282;2023-04-30T12:05:12;94393.88;;;22.15;46.73
6464;BME280;3265;42.694;23.282;2023-04-30T12:07:48;94398.03;;;21.62;49.44
6464;BME280;3265;42.694;23.282;2023-04-30T12:10:16;94399.19;;;21.28;50.27
6464;BME280;3265;42.694;23.282;2023-04-30T12:12:45;94392.50;;;20.66;51.17
6464;BME280;3265;42.694;23.282;2023-04-30T12:15:14;94399.19;;;20.59;51.33
6464;BME280;3265;42.694;23.282;2023-04-30T12:17:47;94403.03;;;20.05;51.33
6464;BME280;3265;42.694;23.282;2023-04-30T12:20:14;94409.72;;;19.50;53.91
6464;BME280;3265;42.694;23.282;2023-04-30T12:22:43;94408.84;;;19.26;56.28
6464;BME280;3265;42.694;23.282;2023-04-30T12:25:12;94412.03;;;18.94;57.27
6464;BME280;3265;42.694;23.282;2023-04-30T12:27:41;94427.72;;;18.76;57.60
6464;BME280;3265;42.694;23.282;2023-04-30T12:30:08;94421.25;;;18.53;59.22
6464;BME280;3265;42.694;23.282;2023-04-30T12:32:37;94425.50;;;18.44;59.58
6464;BME280;3265;42.694;23.282;2023-04-30T12:35:07;94420.34;;;18.24;61.09
6464;BME280;3265;42.694;23.282;2023-04-30T12:37:34;94411.94;;;18.22;61.64
6464;BME280;3265;42.694;23.282;2023-04-30T12:40:02;94419.09;;;18.11;63.33
6464;BME280;3265;42.694;23.282;2023-04-30T12:42:34;94421.44;;;18.12;63.34
6464;BME280;3265;42.694;23.282;2023-04-30T12:45:11;94419.81;;;18.27;63.49
6464;BME280;3265;42.694;23.282;2023-04-30T12:47:44;94417.88;;;18.42;61.28
6464;BME280;3265;42.694;23.282;2023-04-30T12:50:12;94405.75;;;18.51;60.91
6464;BME280;3265;42.694;23.282;2023-04-30T12:52:39;94412.06;;;18.50;60.19
6464;BME280;3265;42.694;23.282;2023-04-30T12:55:16;94423.97;;;18.38;58.55
6464;BME280;3265;42.694;23.282;2023-04-30T12:58:04;94429.75;;;18.35;59.27
6464;BME280;3265;42.694;23.282;2023-04-30T13:00:45;94426.91;;;18.26;58.66
6464;BME280;3265;42.694;23.282;2023-04-30T13:03:12;94421.22;;;18.04;60.04
6464;BME280;3265;42.694;23.282;2023-04-30T13:05:45;94414.94;;;18.00;61.05
6464;BME280;3265;42.694;23.282;2023-04-30T13:08:13;94416.72;;;18.09;62.47
6464;BME280;3265;42.694;23.282;2023-04-30T13:10:40;94407.22;;;18.13;61.95
6464;BME280;3265;42.694;23.282;2023-04-30T13:13:07;94394.94;;;17.99;62.53
6464;BME280;3265;42.694;23.282;2023-04-30T13:15:33;94390.81;;;17.83;62.37
6464;BME280;3265;42.694;23.282;2023-04-30T13:18:00;94383.19;;;17.76;63.72